Time;durP1;ratioP1;P1;durP2;ratioP2;P2;SDS_P1;SDS_P2;PMS_P1;PMS_P2;Temp;Humidity;BMP_temperature;BMP_pressure;BME280_temperature;BME280_humidity;BME280_pressure;Samples;Min_cycle;Max_cycle;Signal;HPM_P1;HPM_P2
2023/12/10 00:00:16;;;;;;;1.30;0.68;;;23.70;99.90;;;;;;5014403;28;20187;-76
2023/12/10 00:02:47;;;;;;;0.75;0.38;;;23.70;99.90;;;;;;5005490;28;20235;-74
2023/12/10 00:05:18;;;;;;;0.85;0.70;;;23.70;99.90;;;;;;4994573;28;20319;-87
2023/12/10 00:07:49;;;;;;;1.83;0.60;;;23.80;99.90;;;;;;4994590;28;20231;-84
2023/12/10 00:10:20;;;;;;;1.15;0.45;;;23.80;99.90;;;;;;4994773;28;20239;-83
2023/12/10 00:12:50;;;;;;;1.60;0.70;;;23.80;99.90;;;;;;4994286;28;20193;-83
2023/12/10 00:15:23;;;;;;;1.52;0.65;;;23.80;99.90;;;;;;4994294;28;20273;-83
2023/12/10 00:17:54;;;;;;;1.48;0.57;;;23.80;99.90;;;;;;5004561;28;20183;-84
2023/12/10 00:20:25;;;;;;;2.55;0.60;;;23.80;99.90;;;;;;5014912;28;20256;-75
2023/12/10 00:22:56;;;;;;;1.17;0.63;;;23.80;99.90;;;;;;4999781;28;20191;-80
2023/12/10 00:25:27;;;;;;;1.77;0.70;;;23.80;99.90;;;;;;5012412;28;20210;-76
2023/12/10 00:27:58;;;;;;;2.40;0.70;;;23.90;99.90;;;;;;5022542;28;20194;-75
2023/12/10 00:30:31;;;;;;;4.03;0.80;;;24.00;99.90;;;;;;5033618;28;20273;-77
2023/12/10 00:33:01;;;;;;;2.08;0.75;;;24.00;99.90;;;;;;5025153;28;20273;-82
2023/12/10 00:35:32;;;;;;;1.08;0.70;;;24.00;99.90;;;;;;5011702;28;20250;-79
2023/12/10 00:38:06;;;;;;;1.92;0.88;;;24.10;99.90;;;;;;5002565;28;20230;-74
2023/12/10 00:40:37;;;;;;;3.38;1.00;;;24.10;99.90;;;;;;5013465;28;20199;-80
2023/12/10 00:43:08;;;;;;;2.95;0.80;;;24.20;99.90;;;;;;4999572;28;20234;-76
2023/12/10 00:45:41;;;;;;;2.30;0.80;;;24.30;99.90;;;;;;4993983;28;20231;-82
2023/12/10 00:48:12;;;;;;;2.10;0.80;;;24.40;99.90;;;;;;4993833;28;20235;-77
2023/12/10 00:50:43;;;;;;;2.10;0.90;;;24.50;99.90;;;;;;4996185;28;20205;-81
2023/12/10 00:53:14;;;;;;;1.65;1.10;;;24.60;99.90;;;;;;5012350;28;20274;-78
2023/12/10 00:55:45;;;;;;;3.50;0.90;;;24.70;99.90;;;;;;5003330;28;20218;-78
2023/12/10 00:58:16;;;;;;;2.92;1.00;;;24.80;99.90;;;;;;5013190;28;20271;-75
2023/12/10 01:00:49;;;;;;;4.20;1.10;;;24.80;99.90;;;;;;5013157;28;20595;-76
2023/12/10 01:03:20;;;;;;;3.50;1.10;;;24.70;99.90;;;;;;5012980;28;20183;-81
2023/12/10 01:05:51;;;;;;;3.35;1.10;;;24.60;99.90;;;;;;5010839;28;20187;-84
2023/12/10 01:08:21;;;;;;;4.15;1.20;;;24.50;99.90;;;;;;5015038;28;20274;-76
2023/12/10 01:10:52;;;;;;;3.47;1.10;;;24.50;99.90;;;;;;5016512;28;20187;-80
2023/12/10 01:13:24;;;;;;;2.65;1.00;;;24.50;99.90;;;;;;4999229;28;20195;-76
2023/12/10 01:15:57;;;;;;;1.42;0.93;;;24.50;99.90;;;;;;5015831;28;20210;-82
2023/12/10 01:18:28;;;;;;;3.35;1.10;;;24.50;99.90;;;;;;5009757;28;20271;-80
2023/12/10 01:20:58;;;;;;;2.58;1.10;;;24.60;99.90;;;;;;5006794;28;20198;-75
2023/12/10 01:23:29;;;;;;;1.63;0.90;;;24.90;99.90;;;;;;5008692;28;20223;-75
2023/12/10 01:26:00;;;;;;;3.30;1.35;;;25.00;99.90;;;;;;5001507;28;20634;-81
2023/12/10 01:28:31;;;;;;;2.25;1.30;;;25.10;99.90;;;;;;5016234;28;20278;-80
2023/12/10 01:31:04;;;;;;;2.45;1.10;;;25.10;99.90;;;;;;5012166;28;20194;-75
2023/12/10 01:33:34;;;;;;;5.07;1.20;;;25.00;99.90;;;;;;5009729;28;20195;-76
2023/12/10 01:36:05;;;;;;;1.70;1.13;;;24.90;99.90;;;;;;5006068;28;20219;-75
2023/12/10 01:38:36;;;;;;;3.72;1.05;;;24.80;99.90;;;;;;5015013;28;20618;-74
2023/12/10 01:41:07;;;;;;;2.47;1.20;;;24.80;99.90;;;;;;5015810;28;20282;-75
2023/12/10 01:43:38;;;;;;;1.75;1.05;;;24.80;99.90;;;;;;4997258;28;20279;-75
2023/12/10 01:46:11;;;;;;;4.45;1.33;;;24.90;99.90;;;;;;5012711;28;20222;-75
2023/12/10 01:48:43;;;;;;;4.28;1.45;;;24.90;99.90;;;;;;5010679;28;20286;-79
2023/12/10 01:51:15;;;;;;;2.40;1.27;;;24.90;99.90;;;;;;5015765;28;20265;-75
2023/12/10 01:53:46;;;;;;;3.35;1.20;;;24.90;99.90;;;;;;5016372;28;20191;-74
2023/12/10 01:56:17;;;;;;;2.88;1.25;;;25.00;99.90;;;;;;5014714;28;20215;-75
2023/12/10 01:58:48;;;;;;;3.47;1.20;;;24.90;99.90;;;;;;5016230;28;20282;-77
2023/12/10 02:01:21;;;;;;;1.85;1.10;;;25.00;99.90;;;;;;5007565;28;20205;-74
2023/12/10 02:03:52;;;;;;;3.85;1.17;;;25.00;99.90;;;;;;5015213;28;20202;-81
2023/12/10 02:06:25;;;;;;;4.15;1.20;;;24.90;99.90;;;;;;5012368;28;20283;-77
2023/12/10 02:08:56;;;;;;;4.70;1.30;;;25.00;99.90;;;;;;5016145;28;20278;-75
2023/12/10 02:11:27;;;;;;;3.45;1.20;;;25.00;99.90;;;;;;5016387;28;20195;-75
2023/12/10 02:13:58;;;;;;;3.90;1.40;;;25.10;99.90;;;;;;5015965;28;20195;-75
2023/12/10 02:16:31;;;;;;;4.65;1.50;;;25.20;99.90;;;;;;5013824;28;20410;-75
2023/12/10 02:19:02;;;;;;;3.70;1.70;;;25.20;99.90;;;;;;4998936;28;20202;-77
2023/12/10 02:21:34;;;;;;;3.42;1.25;;;25.20;99.90;;;;;;5016005;28;20195;-78
2023/12/10 02:24:07;;;;;;;4.82;1.25;;;25.20;99.90;;;;;;5016105;28;20207;-75
2023/12/10 02:26:41;;;;;;;5.50;1.50;;;25.30;99.90;;;;;;5016274;28;20290;-76
2023/12/10 02:29:12;;;;;;;3.20;1.23;;;25.30;99.90;;;;;;5016334;28;20278;-75
2023/12/10 02:31:44;;;;;;;6.90;1.55;;;25.30;99.90;;;;;;5016038;28;20229;-75
2023/12/10 02:34:15;;;;;;;3.47;1.45;;;25.30;99.90;;;;;;5016043;28;20709;-75
2023/12/10 02:36:46;;;;;;;4.40;1.40;;;25.40;99.90;;;;;;5015747;28;20195;-75
2023/12/10 02:39:17;;;;;;;3.97;1.40;;;25.40;99.90;;;;;;5009764;28;20286;-75
2023/12/10 02:41:51;;;;;;;5.50;1.60;;;25.40;99.90;;;;;;5016175;28;20339;-75
2023/12/10 02:44:21;;;;;;;5.32;1.27;;;25.40;99.90;;;;;;5016092;28;20202;-75
2023/12/10 02:46:52;;;;;;;3.63;1.50;;;25.40;99.90;;;;;;5015698;28;20309;-75
2023/12/10 02:49:23;;;;;;;5.03;1.52;;;25.50;99.90;;;;;;5015522;28;20235;-74
2023/12/10 02:51:54;;;;;;;4.35;1.02;;;25.60;99.90;;;;;;5015515;28;20288;-75
2023/12/10 02:54:25;;;;;;;3.78;1.38;;;25.80;99.90;;;;;;5013288;28;20199;-75
2023/12/10 02:56:58;;;;;;;5.07;1.50;;;26.00;99.90;;;;;;5014128;28;20285;-82
2023/12/10 02:59:28;;;;;;;4.28;1.33;;;26.20;99.90;;;;;;5015472;28;20606;-76
2023/12/10 03:01:59;;;;;;;4.50;1.45;;;26.30;99.90;;;;;;5015833;28;20706;-76
2023/12/10 03:04:30;;;;;;;3.65;1.20;;;26.40;99.90;;;;;;5015495;28;20193;-76
2023/12/10 03:07:01;;;;;;;6.28;1.40;;;26.30;99.90;;;;;;5015155;28;20191;-76
2023/12/10 03:09:32;;;;;;;3.20;1.20;;;26.40;99.90;;;;;;5015350;28;20643;-79
2023/12/10 03:12:04;;;;;;;3.45;1.40;;;26.40;99.90;;;;;;5015337;28;20277;-79
2023/12/10 03:14:35;;;;;;;3.05;1.30;;;26.40;99.90;;;;;;5012118;28;20746;-77
2023/12/10 03:17:06;;;;;;;5.10;1.27;;;26.50;99.90;;;;;;5015275;28;20229;-75
2023/12/10 03:19:38;;;;;;;3.58;1.23;;;26.30;99.90;;;;;;5015316;28;20231;-76
2023/12/10 03:22:09;;;;;;;4.07;1.50;;;26.40;99.90;;;;;;5015183;28;20643;-75
2023/12/10 03:24:39;;;;;;;7.28;1.55;;;26.40;99.90;;;;;;5015039;28;20195;-75
2023/12/10 03:27:12;;;;;;;5.72;1.50;;;26.60;99.90;;;;;;5015371;28;20284;-75
2023/12/10 03:29:43;;;;;;;2.83;1.20;;;26.50;99.90;;;;;;5013896;28;20209;-77
2023/12/10 03:32:14;;;;;;;2.33;1.30;;;26.50;99.90;;;;;;5006342;28;20206;-74
2023/12/10 03:34:45;;;;;;;4.70;1.27;;;26.40;99.90;;;;;;5014741;28;20286;-78
2023/12/10 03:37:15;;;;;;;2.80;1.10;;;26.40;99.90;;;;;;5014779;28;20639;-75
2023/12/10 03:39:46;;;;;;;3.22;1.10;;;26.40;99.90;;;;;;5014795;28;20278;-75
2023/12/10 03:42:19;;;;;;;2.45;1.08;;;26.40;99.90;;;;;;5014761;28;20277;-74
2023/12/10 03:44:50;;;;;;;3.75;1.25;;;26.30;99.90;;;;;;5014656;28;20197;-75
2023/12/10 03:47:21;;;;;;;1.92;1.10;;;26.20;99.90;;;;;;5014457;28;20301;-75
2023/12/10 03:49:51;;;;;;;2.78;1.00;;;26.20;99.90;;;;;;5010976;28;20194;-76
2023/12/10 03:52:22;;;;;;;1.60;0.95;;;26.10;99.90;;;;;;5014565;28;20273;-75
2023/12/10 03:54:53;;;;;;;5.05;1.38;;;26.10;99.90;;;;;;5014532;28;20191;-76
2023/12/10 03:57:26;;;;;;;3.45;1.40;;;26.00;99.90;;;;;;5014802;28;20282;-76
2023/12/10 03:59:57;;;;;;;1.85;1.15;;;26.00;99.90;;;;;;5014468;28;20634;-75
2023/12/10 04:02:28;;;;;;;2.72;1.27;;;26.00;99.90;;;;;;5014389;28;20274;-75
2023/12/10 04:04:58;;;;;;;3.47;1.20;;;26.00;99.90;;;;;;5014202;28;20199;-75
2023/12/10 04:07:29;;;;;;;1.80;1.10;;;26.10;99.90;;;;;;5010349;28;20662;-76
2023/12/10 04:10:02;;;;;;;3.95;1.23;;;26.00;99.90;;;;;;5006693;28;20304;-75
2023/12/10 04:12:35;;;;;;;5.28;1.55;;;25.90;99.90;;;;;;5014620;28;20233;-76
2023/12/10 04:15:06;;;;;;;2.50;1.27;;;25.90;99.90;;;;;;5014639;28;20278;-76
2023/12/10 04:17:37;;;;;;;2.88;1.20;;;25.90;99.90;;;;;;5013930;28;20277;-77
2023/12/10 04:20:09;;;;;;;3.60;1.20;;;26.00;99.90;;;;;;5014513;28;20223;-75
2023/12/10 04:22:40;;;;;;;4.30;1.25;;;25.90;99.90;;;;;;5014252;28;20686;-75
2023/12/10 04:25:11;;;;;;;2.72;1.15;;;25.90;99.90;;;;;;5011563;28;20226;-76
2023/12/10 04:27:44;;;;;;;3.67;1.10;;;25.90;99.90;;;;;;5008991;28;20559;-75
2023/12/10 04:30:15;;;;;;;5.57;1.27;;;26.00;99.90;;;;;;5014073;28;20187;-75
2023/12/10 04:32:46;;;;;;;2.97;1.25;;;25.90;99.90;;;;;;5014148;28;20294;-78
2023/12/10 04:35:17;;;;;;;3.70;1.25;;;25.80;99.90;;;;;;5013841;28;20187;-75
2023/12/10 04:37:48;;;;;;;2.78;1.40;;;25.80;99.90;;;;;;5013811;28;20272;-74
2023/12/10 04:40:19;;;;;;;3.47;1.20;;;25.70;99.90;;;;;;5013843;28;20278;-75
2023/12/10 04:42:51;;;;;;;4.75;1.55;;;25.70;99.90;;;;;;5011507;28;20202;-80
2023/12/10 04:45:23;;;;;;;3.35;1.13;;;25.70;99.90;;;;;;5006124;28;20766;-75
2023/12/10 04:47:54;;;;;;;3.08;1.20;;;25.70;99.90;;;;;;5013408;28;20848;-76
2023/12/10 04:50:25;;;;;;;2.38;1.10;;;25.70;99.90;;;;;;5013729;28;20190;-74
2023/12/10 04:52:56;;;;;;;7.55;1.50;;;25.60;99.90;;;;;;5013716;28;20596;-74
2023/12/10 04:55:26;;;;;;;4.30;1.23;;;25.70;99.90;;;;;;5011252;28;20302;-77
2023/12/10 04:57:59;;;;;;;3.97;1.40;;;25.70;99.90;;;;;;5002265;28;20747;-84
2023/12/10 05:00:30;;;;;;;4.05;1.40;;;25.60;99.90;;;;;;5013568;28;20274;-75
2023/12/10 05:03:05;;;;;;;5.93;1.55;;;25.60;99.90;;;;;;5013409;28;20270;-77
2023/12/10 05:05:36;;;;;;;3.85;1.25;;;25.60;99.90;;;;;;5013535;28;20205;-76
2023/12/10 05:08:08;;;;;;;3.47;1.55;;;25.60;99.90;;;;;;5012887;28;20191;-76
2023/12/10 05:10:38;;;;;;;4.00;1.70;;;25.60;99.90;;;;;;5013146;28;20190;-77
2023/12/10 05:13:11;;;;;;;5.22;1.80;;;25.60;99.90;;;;;;5013585;28;20230;-76
2023/12/10 05:15:42;;;;;;;3.92;1.42;;;25.70;99.90;;;;;;5009466;28;20311;-77
2023/12/10 05:18:13;;;;;;;4.00;1.35;;;25.80;99.90;;;;;;5011934;28;20282;-76
2023/12/10 05:20:44;;;;;;;6.00;1.60;;;25.90;99.90;;;;;;5011776;28;20202;-75
2023/12/10 05:23:15;;;;;;;3.22;1.40;;;25.90;99.90;;;;;;5012120;28;20274;-78
2023/12/10 05:25:46;;;;;;;3.92;1.42;;;26.00;99.90;;;;;;5013175;28;20231;-88
2023/12/10 05:28:18;;;;;;;3.40;1.40;;;26.00;99.90;;;;;;5012761;28;20202;-76
2023/12/10 05:30:49;;;;;;;3.30;1.30;;;26.00;99.90;;;;;;5010011;28;20219;-75
2023/12/10 05:33:20;;;;;;;3.47;1.23;;;26.00;99.90;;;;;;5012038;28;20729;-74
2023/12/10 05:35:51;;;;;;;3.72;1.27;;;25.90;99.90;;;;;;5013052;28;20298;-74
2023/12/10 05:38:21;;;;;;;3.83;1.42;;;25.80;99.90;;;;;;5011582;28;20278;-74
2023/12/10 05:40:52;;;;;;;3.47;1.50;;;25.80;99.90;;;;;;5014589;28;20577;-75
2023/12/10 05:43:25;;;;;;;3.00;1.35;;;25.70;99.90;;;;;;5012780;28;20187;-81
2023/12/10 05:45:56;;;;;;;6.38;1.40;;;25.60;99.90;;;;;;5012538;28;20275;-74
2023/12/10 05:48:27;;;;;;;3.17;1.45;;;25.50;99.90;;;;;;5012468;28;20238;-74
2023/12/10 05:50:58;;;;;;;5.05;1.60;;;25.40;99.90;;;;;;5012410;28;20205;-74
2023/12/10 05:53:29;;;;;;;3.78;1.50;;;25.40;99.90;;;;;;5014660;28;20626;-76
2023/12/10 05:56:00;;;;;;;5.25;1.70;;;25.40;99.90;;;;;;5016184;28;20302;-75
2023/12/10 05:58:32;;;;;;;5.55;1.90;;;25.40;99.90;;;;;;5016485;28;20219;-76
2023/12/10 06:01:03;;;;;;;7.07;1.70;;;25.40;99.90;;;;;;5015795;28;20207;-83
2023/12/10 06:03:34;;;;;;;8.35;2.20;;;25.30;99.90;;;;;;5023819;28;20617;-86
2023/12/10 06:06:08;;;;;;;5.57;1.63;;;25.10;99.90;;;;;;5012321;28;20231;-81
2023/12/10 06:08:38;;;;;;;4.88;1.60;;;25.10;99.90;;;;;;5012670;28;20214;-85
2023/12/10 06:11:09;;;;;;;6.07;1.90;;;25.10;99.90;;;;;;5016429;28;20199;-86
2023/12/10 06:13:42;;;;;;;10.13;1.95;;;25.00;99.90;;;;;;5015512;28;20657;-81
2023/12/10 06:16:13;;;;;;;4.97;1.90;;;25.00;99.90;;;;;;5015718;28;20302;-85
2023/12/10 06:18:44;;;;;;;6.30;2.25;;;24.90;99.90;;;;;;5016179;28;20694;-85
2023/12/10 06:21:15;;;;;;;9.93;2.38;;;24.80;99.90;;;;;;5014707;28;20532;-75
2023/12/10 06:23:46;;;;;;;7.70;2.10;;;24.80;99.90;;;;;;5015883;28;20187;-84
2023/12/10 06:26:16;;;;;;;7.03;2.33;;;24.80;99.90;;;;;;5015181;28;20206;-75
2023/12/10 06:28:49;;;;;;;6.57;2.92;;;24.80;99.90;;;;;;5013876;28;20198;-79
2023/12/10 06:31:20;;;;;;;7.70;2.47;;;24.80;99.90;;;;;;5008176;28;20269;-81
2023/12/10 06:33:51;;;;;;;9.32;2.20;;;24.80;99.90;;;;;;5011305;28;20270;-75
2023/12/10 06:36:22;;;;;;;11.50;2.35;;;24.70;99.90;;;;;;5013900;28;20211;-76
2023/12/10 06:38:52;;;;;;;5.82;2.00;;;24.70;99.90;;;;;;5014387;28;20209;-75
2023/12/10 06:41:23;;;;;;;8.07;2.20;;;24.70;99.90;;;;;;5013943;28;20266;-74
2023/12/10 06:43:56;;;;;;;7.90;2.40;;;24.60;99.90;;;;;;5014920;28;20274;-75
2023/12/10 06:46:27;;;;;;;11.30;2.80;;;24.50;99.90;;;;;;5009362;28;20242;-78
2023/12/10 06:48:58;;;;;;;6.63;2.30;;;24.50;99.90;;;;;;5013178;28;20230;-73
2023/12/10 06:51:29;;;;;;;8.20;2.70;;;24.30;99.90;;;;;;5015443;28;20592;-72
2023/12/10 06:54:00;;;;;;;9.93;2.50;;;24.30;99.90;;;;;;5015522;28;20644;-74
2023/12/10 06:56:33;;;;;;;11.05;3.38;;;24.30;99.90;;;;;;5013486;28;20226;-73
2023/12/10 06:59:06;;;;;;;8.73;2.45;;;24.30;99.90;;;;;;5013088;28;20195;-73
2023/12/10 07:01:38;;;;;;;6.82;2.88;;;24.20;99.90;;;;;;5015381;28;20195;-80
2023/12/10 07:04:09;;;;;;;9.18;3.33;;;24.20;99.90;;;;;;4995675;28;20274;-78
2023/12/10 07:06:41;;;;;;;10.65;4.35;;;24.20;99.90;;;;;;5004033;28;20214;-76
2023/12/10 07:09:12;;;;;;;14.45;4.70;;;24.20;99.90;;;;;;5015399;28;20241;-76
2023/12/10 07:11:43;;;;;;;10.05;4.38;;;24.10;99.90;;;;;;5007827;28;20202;-76
2023/12/10 07:14:15;;;;;;;13.85;5.18;;;24.10;99.90;;;;;;5012826;28;20285;-75
2023/12/10 07:16:46;;;;;;;17.42;8.60;;;24.00;99.90;;;;;;5012250;28;20223;-76
2023/12/10 07:19:17;;;;;;;16.52;9.15;;;24.00;99.90;;;;;;5014940;28;20403;-73
2023/12/10 07:21:48;;;;;;;21.83;9.60;;;24.00;99.90;;;;;;5010292;28;20231;-74
2023/12/10 07:24:19;;;;;;;19.92;10.07;;;24.00;99.90;;;;;;5014587;28;20199;-77
2023/12/10 07:26:50;;;;;;;22.70;12.82;;;24.00;99.90;;;;;;5008826;28;20629;-74
2023/12/10 07:29:23;;;;;;;21.27;13.25;;;24.00;99.90;;;;;;5013524;28;20277;-75
2023/12/10 07:31:54;;;;;;;27.98;14.60;;;24.00;99.90;;;;;;5009941;28;20205;-81
2023/12/10 07:34:25;;;;;;;26.42;14.40;;;24.10;99.90;;;;;;5002566;28;20198;-74
2023/12/10 07:36:56;;;;;;;23.73;13.40;;;24.20;99.90;;;;;;5014352;28;20305;-84
2023/12/10 07:39:26;;;;;;;29.10;14.98;;;24.10;99.90;;;;;;5014447;28;20203;-74
2023/12/10 07:41:58;;;;;;;24.40;14.27;;;24.20;99.90;;;;;;5008774;28;20632;-80
2023/12/10 07:44:31;;;;;;;22.52;14.20;;;24.20;99.90;;;;;;5008878;28;20718;-73
2023/12/10 07:47:02;;;;;;;23.67;13.88;;;24.10;99.90;;;;;;5003872;28;20571;-73
2023/12/10 07:49:33;;;;;;;20.90;13.60;;;24.10;99.90;;;;;;5010141;28;20258;-75
2023/12/10 07:52:04;;;;;;;27.02;14.43;;;24.10;99.90;;;;;;5009981;28;20286;-82
2023/12/10 07:54:35;;;;;;;24.30;15.15;;;24.10;99.90;;;;;;5013143;28;20301;-79
2023/12/10 07:57:06;;;;;;;24.20;14.55;;;24.10;99.90;;;;;;5008714;28;20253;-81
2023/12/10 07:59:39;;;;;;;19.50;13.13;;;24.10;99.90;;;;;;5011582;28;20278;-80
2023/12/10 08:02:10;;;;;;;23.92;14.68;;;24.00;99.90;;;;;;5003964;28;20217;-84
2023/12/10 08:04:41;;;;;;;21.17;12.70;;;24.00;99.90;;;;;;4999749;28;20286;-84
2023/12/10 08:07:11;;;;;;;24.33;12.50;;;24.00;99.90;;;;;;5005541;28;20219;-84
2023/12/10 08:09:42;;;;;;;21.95;12.68;;;24.00;99.90;;;;;;5012362;28;20220;-84
2023/12/10 08:12:13;;;;;;;27.65;12.90;;;24.00;99.90;;;;;;5012394;28;20274;-85
2023/12/10 08:14:46;;;;;;;22.23;11.70;;;24.00;99.90;;;;;;5010060;28;20629;-84
2023/12/10 08:17:17;;;;;;;19.27;10.77;;;24.00;99.90;;;;;;5003779;28;20218;-84
2023/12/10 08:19:48;;;;;;;20.40;11.38;;;23.90;99.90;;;;;;5013973;28;20285;-84
2023/12/10 08:22:19;;;;;;;21.80;11.48;;;23.90;99.90;;;;;;4997186;28;20334;-86
2023/12/10 08:24:49;;;;;;;20.75;11.65;;;23.90;99.90;;;;;;4995660;28;20200;-84
2023/12/10 08:27:20;;;;;;;21.25;11.05;;;23.80;99.90;;;;;;5013608;28;20657;-82
2023/12/10 08:29:53;;;;;;;22.80;11.73;;;23.80;99.90;;;;;;5012840;28;20197;-84
2023/12/10 08:32:24;;;;;;;23.17;10.63;;;23.80;99.90;;;;;;5012666;28;20227;-85
2023/12/10 08:34:54;;;;;;;19.73;10.20;;;23.70;99.90;;;;;;5012571;28;20610;-85
2023/12/10 08:37:25;;;;;;;23.65;10.38;;;23.80;99.90;;;;;;5013161;28;20222;-85
2023/12/10 08:39:56;;;;;;;20.05;9.82;;;23.70;99.90;;;;;;5013270;28;20187;-85
2023/12/10 08:42:28;;;;;;;18.05;9.35;;;23.70;99.90;;;;;;5012561;28;20673;-74
2023/12/10 08:45:01;;;;;;;24.25;9.90;;;23.70;99.90;;;;;;5001681;28;20231;-75
2023/12/10 08:47:32;;;;;;;20.17;9.70;;;23.70;99.90;;;;;;5013372;28;20234;-78
2023/12/10 08:50:03;;;;;;;24.90;8.88;;;23.70;99.90;;;;;;5011941;28;20618;-74
2023/12/10 08:52:33;;;;;;;15.18;8.73;;;23.70;99.90;;;;;;5012528;28;20211;-75
2023/12/10 08:55:04;;;;;;;15.38;7.78;;;23.60;99.90;;;;;;5007340;28;20205;-83
2023/12/10 08:57:35;;;;;;;16.42;8.38;;;23.60;99.90;;;;;;5012657;28;20297;-81
2023/12/10 09:00:09;;;;;;;17.10;7.65;;;23.60;99.90;;;;;;5012148;28;20201;-73
2023/12/10 09:02:40;;;;;;;14.55;6.10;;;23.60;99.90;;;;;;5013425;28;20242;-74
2023/12/10 09:05:11;;;;;;;15.55;5.53;;;23.50;99.90;;;;;;5012460;28;20242;-74
2023/12/10 09:07:42;;;;;;;18.00;5.88;;;23.50;99.90;;;;;;5012548;28;20195;-75
2023/12/10 09:10:13;;;;;;;14.60;5.78;;;23.40;99.90;;;;;;5013374;28;20663;-84
2023/12/10 09:12:44;;;;;;;13.02;4.93;;;23.40;99.90;;;;;;5011741;28;20682;-80
2023/12/10 09:15:17;;;;;;;17.27;5.35;;;23.40;99.90;;;;;;5004587;28;20239;-78
2023/12/10 09:17:48;;;;;;;13.70;5.07;;;23.30;99.90;;;;;;5009543;28;20314;-74
2023/12/10 09:20:19;;;;;;;13.68;4.80;;;23.30;99.90;;;;;;5009232;28;20283;-79
2023/12/10 09:22:50;;;;;;;11.50;5.15;;;23.30;99.90;;;;;;5011409;28;20285;-74
2023/12/10 09:25:21;;;;;;;12.85;4.90;;;23.30;99.90;;;;;;5011449;28;20233;-78
2023/12/10 09:27:51;;;;;;;17.45;4.78;;;23.30;99.90;;;;;;5007308;28;20198;-74
2023/12/10 09:30:24;;;;;;;15.13;4.93;;;23.30;99.90;;;;;;5016136;28;20273;-79
2023/12/10 09:32:55;;;;;;;12.15;4.85;;;23.30;99.90;;;;;;5016075;28;20304;-84
2023/12/10 09:35:26;;;;;;;11.82;4.80;;;23.30;99.90;;;;;;5016599;28;20226;-83
2023/12/10 09:37:56;;;;;;;13.80;5.10;;;23.30;99.90;;;;;;5007237;28;20302;-85
2023/12/10 09:40:27;;;;;;;15.02;5.10;;;23.30;99.90;;;;;;5004363;28;20277;-79
2023/12/10 09:42:58;;;;;;;19.58;5.22;;;23.30;99.90;;;;;;5016143;28;20655;-85
2023/12/10 09:45:31;;;;;;;17.48;5.72;;;23.30;99.90;;;;;;5012397;28;20219;-85
2023/12/10 09:48:03;;;;;;;18.00;5.20;;;23.30;99.90;;;;;;5014652;28;20274;-84
2023/12/10 09:50:38;;;;;;;15.30;5.60;;;23.30;99.90;;;;;;5015608;28;20198;-86
2023/12/10 09:53:09;;;;;;;13.60;5.22;;;23.30;99.90;;;;;;5014407;28;20194;-83
2023/12/10 09:55:41;;;;;;;14.98;5.18;;;23.30;99.90;;;;;;5016427;28;20203;-81
2023/12/10 09:58:12;;;;;;;17.42;5.43;;;23.30;99.90;;;;;;5016464;28;20705;-83
2023/12/10 10:00:44;;;;;;;12.65;5.05;;;23.30;99.90;;;;;;5015063;28;20223;-83
2023/12/10 10:03:15;;;;;;;13.63;5.00;;;23.30;99.90;;;;;;5016225;28;20560;-82
2023/12/10 10:05:46;;;;;;;14.93;5.30;;;23.30;99.90;;;;;;5015674;28;20306;-84
2023/12/10 10:08:18;;;;;;;11.25;4.88;;;23.30;99.90;;;;;;5016507;28;20207;-84
2023/12/10 10:10:49;;;;;;;13.48;5.35;;;23.30;99.90;;;;;;5016839;28;20198;-84
2023/12/10 10:13:20;;;;;;;17.55;5.40;;;23.30;99.90;;;;;;5015724;28;20213;-82
2023/12/10 10:15:54;;;;;;;10.48;5.13;;;23.30;99.90;;;;;;5006530;28;20248;-81
2023/12/10 10:18:26;;;;;;;15.38;5.00;;;23.30;99.90;;;;;;5015783;28;20576;-79
2023/12/10 10:20:57;;;;;;;16.52;5.00;;;23.30;99.90;;;;;;5003631;28;20199;-84
2023/12/10 10:23:31;;;;;;;17.05;4.57;;;23.30;99.90;;;;;;5015629;28;20223;-84
2023/12/10 10:26:02;;;;;;;13.35;4.97;;;23.30;99.90;;;;;;5015016;28;20330;-84
2023/12/10 10:28:35;;;;;;;15.00;5.45;;;23.30;99.90;;;;;;5016144;28;20207;-77
2023/12/10 10:31:08;;;;;;;12.50;4.35;;;23.30;99.90;;;;;;5015691;28;20228;-85
2023/12/10 10:33:38;;;;;;;19.85;4.78;;;23.30;99.90;;;;;;5015110;28;20650;-84
2023/12/10 10:36:10;;;;;;;16.55;4.88;;;23.30;99.90;;;;;;5015330;28;20278;-83
2023/12/10 10:38:41;;;;;;;10.27;4.55;;;23.30;99.90;;;;;;5014657;28;20214;-85
2023/12/10 10:41:12;;;;;;;13.50;4.80;;;23.30;99.90;;;;;;5014486;28;20262;-79
2023/12/10 10:43:44;;;;;;;14.40;4.80;;;23.30;99.90;;;;;;5009883;28;20228;-84
2023/12/10 10:46:19;;;;;;;13.48;4.68;;;23.30;99.90;;;;;;5013926;28;20199;-83
2023/12/10 10:48:51;;;;;;;17.83;4.55;;;23.30;99.90;;;;;;5013695;28;20646;-84
2023/12/10 10:51:27;;;;;;;11.95;4.30;;;23.30;99.90;;;;;;5015184;28;20194;-84
2023/12/10 10:54:02;;;;;;;15.18;4.53;;;23.30;99.90;;;;;;5011264;28;20199;-78
2023/12/10 10:56:33;;;;;;;10.68;4.63;;;23.30;99.90;;;;;;5002602;28;20381;-79
2023/12/10 10:59:04;;;;;;;10.88;4.22;;;23.40;99.90;;;;;;5014919;28;20309;-82
2023/12/10 11:01:51;;;;;;;10.52;4.03;;;23.30;99.90;;;;;;5015249;28;20231;-83
2023/12/10 11:04:28;;;;;;;16.70;4.38;;;23.30;99.90;;;;;;5013032;28;20257;-83
2023/12/10 11:07:00;;;;;;;14.75;3.90;;;23.30;99.90;;;;;;5014701;28;20202;-77
2023/12/10 11:09:32;;;;;;;11.85;4.30;;;23.30;99.90;;;;;;5015276;28;20206;-82
2023/12/10 11:12:03;;;;;;;16.08;3.80;;;23.30;99.90;;;;;;5015053;28;20230;-77
2023/12/10 11:14:36;;;;;;;15.85;3.83;;;23.30;99.90;;;;;;5007706;28;20192;-81
2023/12/10 11:17:11;;;;;;;12.30;3.53;;;23.40;99.90;;;;;;5014810;28;20643;-82
2023/12/10 11:19:42;;;;;;;12.73;3.70;;;23.30;99.90;;;;;;5014738;28;20203;-84
2023/12/10 11:22:14;;;;;;;15.77;3.50;;;23.40;99.90;;;;;;5013051;28;20241;-86
2023/12/10 11:24:46;;;;;;;7.70;2.90;;;23.30;99.90;;;;;;5014900;28;20206;-75
2023/12/10 11:27:16;;;;;;;12.10;3.15;;;23.30;99.90;;;;;;5014261;28;20199;-81
2023/12/10 11:29:47;;;;;;;13.07;2.92;;;23.30;99.90;;;;;;5009783;28;20199;-83
2023/12/10 11:32:20;;;;;;;11.35;3.10;;;23.30;99.90;;;;;;5008780;28;20214;-82
2023/12/10 11:34:51;;;;;;;12.50;2.92;;;23.30;99.90;;;;;;5014288;28;20238;-85
2023/12/10 11:37:22;;;;;;;13.95;3.28;;;23.30;99.90;;;;;;4999762;28;20203;-86
2023/12/10 11:39:53;;;;;;;9.82;2.75;;;23.30;99.90;;;;;;5011170;28;20697;-77
2023/12/10 11:42:24;;;;;;;14.60;2.80;;;23.40;99.90;;;;;;5014615;28;20274;-85
2023/12/10 11:44:55;;;;;;;17.48;3.25;;;23.30;99.90;;;;;;5012901;28;20225;-79
2023/12/10 11:47:31;;;;;;;9.68;2.67;;;23.30;99.90;;;;;;5011747;28;20266;-79
2023/12/10 11:50:02;;;;;;;11.80;2.95;;;23.30;99.90;;;;;;5013316;28;20206;-85
2023/12/10 11:52:33;;;;;;;12.75;2.90;;;23.30;99.90;;;;;;5013538;28;20274;-85
2023/12/10 11:55:05;;;;;;;14.80;3.28;;;23.30;99.90;;;;;;5014546;28;20198;-84
2023/12/10 11:57:36;;;;;;;11.60;2.75;;;23.30;99.90;;;;;;4996267;28;20227;-76
2023/12/10 12:00:08;;;;;;;14.60;3.38;;;23.30;99.90;;;;;;5002021;28;20273;-83
2023/12/10 12:02:46;;;;;;;12.40;2.35;;;23.30;99.90;;;;;;5014587;28;20195;-83
2023/12/10 12:05:18;;;;;;;8.75;2.72;;;23.30;99.90;;;;;;5014507;28;20281;-83
2023/12/10 12:07:52;;;;;;;8.75;2.45;;;23.30;99.90;;;;;;5014141;28;20198;-84
2023/12/10 12:10:23;;;;;;;10.93;2.55;;;23.20;99.90;;;;;;5012781;28;20226;-77
2023/12/10 12:12:53;;;;;;;11.13;2.42;;;23.20;99.90;;;;;;5014462;28;20279;-78
2023/12/10 12:15:24;;;;;;;11.20;2.58;;;23.30;99.90;;;;;;5014194;28;20278;-83
2023/12/10 12:17:57;;;;;;;9.68;2.60;;;23.20;99.90;;;;;;5000047;28;20742;-85
2023/12/10 12:20:29;;;;;;;9.82;2.67;;;23.20;99.90;;;;;;4996025;28;20265;-83
2023/12/10 12:23:00;;;;;;;10.00;2.40;;;23.20;99.90;;;;;;5014054;28;20191;-83
2023/12/10 12:25:34;;;;;;;9.95;2.33;;;23.20;99.90;;;;;;5014057;28;20413;-83
2023/12/10 12:28:05;;;;;;;11.35;2.53;;;23.20;99.90;;;;;;5013931;28;20231;-82
2023/12/10 12:30:36;;;;;;;15.05;2.65;;;23.20;99.90;;;;;;5003133;28;20183;-85
2023/12/10 12:33:09;;;;;;;18.17;2.60;;;23.20;99.90;;;;;;5014231;28;20654;-84
2023/12/10 12:35:40;;;;;;;12.35;2.08;;;23.20;99.90;;;;;;5013597;28;20233;-84
2023/12/10 12:38:10;;;;;;;12.18;2.47;;;23.20;99.90;;;;;;4998702;28;20226;-83
2023/12/10 12:40:41;;;;;;;10.55;2.38;;;23.10;99.90;;;;;;5007787;28;20249;-84
2023/12/10 12:43:12;;;;;;;12.82;2.42;;;23.10;99.90;;;;;;5014498;28;20277;-82
2023/12/10 12:45:43;;;;;;;15.07;2.70;;;23.20;99.90;;;;;;5013768;28;20589;-83
2023/12/10 12:48:16;;;;;;;11.40;2.22;;;23.10;99.90;;;;;;5013903;28;20238;-83
2023/12/10 12:50:46;;;;;;;13.15;2.92;;;23.10;99.90;;;;;;5007369;28;20198;-83
2023/12/10 12:53:20;;;;;;;13.07;2.30;;;23.10;99.90;;;;;;5000968;28;20274;-78
2023/12/10 12:55:55;;;;;;;9.32;2.38;;;23.10;99.90;;;;;;5013814;28;20436;-76
2023/12/10 12:58:26;;;;;;;13.40;2.38;;;23.10;99.90;;;;;;5013569;28;20218;-83
2023/12/10 13:00:57;;;;;;;17.40;2.17;;;23.10;99.90;;;;;;5013118;28;20542;-76